Data for 05/21/2006

Time Sea-Level Adjusted Pressure Absolute Pressure Temperature Relative Humidity Dew Point   
(mb) (inHg) (mb) (inHg) (C) (F) (%) (C) (F)
00:05 1015 29.97 844 24.92 12.6 54.6 73 7.9 46.1
00:10 1015 29.97 844 24.92 12.5 54.6 72 7.6 45.7
00:15 1015 29.97 845 24.95 12.7 54.8 71 7.5 45.5
00:20 1015 29.97 845 24.95 12.4 54.2 73 7.7 45.9
00:25 1015 29.97 845 24.95 12.1 53.7 74 7.6 45.7
00:30 1015 29.97 845 24.95 11.9 53.3 75 7.6 45.6
00:35 1015 29.97 845 24.95 11.6 53 74 7.1 44.9
00:40 1015 29.97 844 24.92 11.8 53.2 73 7.1 44.9
00:45 1015 29.97 844 24.92 11.8 53.3 73 7.2 44.9
00:50 1015 29.97 844 24.92 11.9 53.4 73 7.1 44.9
00:55 1015 29.97 844 24.92 12 53.5 73 7.2 45
01:00 1015 29.97 844 24.92 12 53.6 72 7.2 44.9
01:05 1015 29.97 844 24.92 12 53.6 73 7.2 45
01:10 1015 29.97 844 24.92 11.6 52.9 75 7.3 45.2
01:15 1015 29.97 844 24.92 11.3 52.4 75 7.2 44.9
01:20 1015 29.97 844 24.92 10.9 51.7 78 7.3 45.1
01:25 1015 29.97 844 24.92 10.7 51.3 77 6.9 44.4
01:30 1015 29.97 844 24.92 10.9 51.6 76 6.9 44.4
01:35 1015 29.97 844 24.92 10.9 51.5 77 6.9 44.5
01:40 1015 29.97 844 24.92 10.8 51.4 76 6.7 44.1
01:45 1015 29.97 844 24.92 11.3 52.3 70 6.1 43.1
01:50 1015 29.97 844 24.92 11.6 52.9 71 6.5 43.7
01:55 1015 29.97 844 24.92 11.5 52.6 72 6.7 44
02:00 1015 29.97 844 24.92 11 51.9 73 6.4 43.6
02:05 1015 29.97 844 24.92 11.5 52.6 70 6.2 43.2
02:10 1015 29.97 844 24.92 11.4 52.6 71 6.5 43.7
02:15 1015 29.97 844 24.92 11.4 52.4 72 6.4 43.6
02:20 1015 29.97 844 24.92 11.2 52.1 74 6.6 44
02:25 1015 29.97 844 24.92 10.9 51.6 74 6.4 43.6
02:30 1015 29.97 844 24.92 11 51.8 73 6.5 43.6
02:35 1015 29.97 844 24.92 10.9 51.5 75 6.6 43.9
02:40 1015 29.97 844 24.92 10.6 51.1 76 6.5 43.8
02:45 1015 29.97 844 24.92 10.7 51.2 75 6.4 43.6
02:50 1015 29.97 844 24.92 10.8 51.4 74 6.3 43.4
02:55 1015 29.97 844 24.92 10.9 51.6 73 6.3 43.3
03:00 1015 29.97 844 24.92 11.1 51.9 72 6.2 43.1
03:05 1015 29.97 844 24.92 11.5 52.7 70 6.2 43.2
03:10 1015 29.97 844 24.92 11.7 53.1 70 6.6 43.8
03:15 1015 29.97 844 24.92 11.7 53 70 6.5 43.7
03:20 1015 29.97 844 24.92 11.8 53.2 69 6.4 43.5
03:25 1015 29.97 844 24.92 11.8 53.2 69 6.4 43.5
03:30 1015 29.97 844 24.92 11.1 51.9 71 6 42.8
03:35 1015 29.97 844 24.92 11.3 52.3 68 5.6 42
03:40 1015 29.97 844 24.92 11.3 52.3 71 6.2 43.1
03:45 1015 29.97 844 24.92 10.4 50.6 74 6 42.8
03:50 1015 29.97 844 24.92 10.4 50.7 74 5.9 42.6
03:55 1015 29.97 844 24.92 10.1 50.3 76 6.2 43.1
04:00 1015 29.97 844 24.92 9.7 49.5 77 5.9 42.5
04:05 1015 29.97 844 24.92 9.4 49 77 5.7 42.2
04:10 1015 29.97 844 24.92 9.2 48.6 76 5.2 41.4
04:15 1015 29.97 844 24.92 9.5 49 76 5.4 41.8
04:20 1015 29.97 844 24.92 9.5 49 74 5.2 41.3
04:25 1015 29.97 844 24.92 9.6 49.3 74 5.3 41.5
04:30 1015 29.97 844 24.92 9.6 49.3 74 5.2 41.4
04:35 1015 29.97 844 24.92 9.5 49 75 5.3 41.6
04:40 1015 29.97 844 24.92 9.2 48.5 77 5.3 41.5
04:45 1015 29.97 844 24.92 9.2 48.6 75 5.1 41.2
04:50 1015 29.97 844 24.92 9.4 48.8 75 5.1 41.3
04:55 1015 29.97 844 24.92 9.7 49.4 75 5.4 41.8
05:00 1015 29.97 844 24.92 9.9 49.9 74 5.6 42
05:05 1015 29.97 844 24.92 9.6 49.2 76 5.7 42.2
05:10 1015 29.97 844 24.92 8.9 48 80 5.6 42.1
05:15 1015 29.97 844 24.92 8.9 48 79 5.5 41.9
05:20 1015 29.97 844 24.92 9.5 49 78 5.8 42.4
05:25 1014 29.94 844 24.92 9.4 48.9 78 5.8 42.5
05:30 1014 29.94 844 24.92 9.6 49.3 77 5.8 42.4
05:35 1015 29.97 844 24.92 9.6 49.3 78 5.9 42.6
05:40 1015 29.97 844 24.92 9.3 48.8 79 5.8 42.5
05:45 1015 29.97 844 24.92 9.3 48.7 78 5.8 42.4
05:50 1015 29.97 844 24.92 9.1 48.4 80 5.8 42.5
05:55 1015 29.97 844 24.92 9 48.3 80 5.7 42.3
06:00 1015 29.97 844 24.92 9.1 48.3 79 5.6 42
06:05 1015 29.97 844 24.92 9.2 48.5 79 5.7 42.3
06:10 1015 29.97 844 24.92 9.2 48.5 78 5.5 41.8
06:15 1015 29.97 844 24.92 9.6 49.2 77 5.7 42.2
06:20 1015 29.97 844 24.92 9.7 49.4 77 5.8 42.4
06:25 1015 29.97 844 24.92 9.5 49.1 78 5.9 42.5
06:30 1015 29.97 844 24.92 9.4 48.8 78 5.8 42.4
06:35 1015 29.97 844 24.92 9.7 49.4 76 5.7 42.3
06:40 1015 29.97 844 24.92 9.9 49.8 76 5.8 42.4
06:45 1015 29.97 844 24.92 9.9 49.9 75 5.8 42.4
06:50 1015 29.97 844 24.92 10 49.9 74 5.6 42.2
06:55 1015 29.97 844 24.92 10.4 50.6 72 5.6 42.2
07:00 1015 29.97 844 24.92 10.8 51.5 72 6 42.7
07:05 1015 29.97 844 24.92 11.2 52.1 71 6.2 43.2
07:10 1015 29.97 844 24.92 11.5 52.6 71 6.5 43.7
07:15 1015 29.97 844 24.92 11.4 52.5 71 6.4 43.5
07:20 1015 29.97 844 24.92 11.6 52.8 71 6.6 43.8
07:25 1015 29.97 844 24.92 11.5 52.6 72 6.6 43.8
07:30 1015 29.97 844 24.92 11.5 52.7 71 6.4 43.5
07:35 1015 29.97 844 24.92 11.7 53 69 6.2 43.2
07:40 1015 29.97 844 24.92 11.8 53.3 69 6.4 43.6
07:45 1015 29.97 844 24.92 12.1 53.7 68 6.4 43.4
07:50 1015 29.97 844 24.92 12.5 54.4 67 6.5 43.7
07:55 1015 29.97 844 24.92 12.7 54.9 67 6.7 44.1
08:00 1015 29.97 844 24.92 13 55.4 65 6.6 43.9
08:05 1015 29.97 844 24.92 12.9 55.2 66 6.6 43.9
08:10 1015 29.97 844 24.92 12.7 54.9 64 6.2 43.2
08:15 1015 29.97 844 24.92 13.1 55.6 63 6.3 43.3
08:20 1015 29.97 844 24.92 13.6 56.4 62 6.6 43.8
08:25 1015 29.97 844 24.92 14.3 57.8 60 6.7 44.1
08:30 1015 29.97 844 24.92 14.5 58.1 61 7.1 44.8
08:35 1015 29.97 844 24.92 14.5 58.1 62 7.3 45.2
08:40 1015 29.97 844 24.92 14.8 58.6 61 7.3 45.2
08:45 1015 29.97 844 24.92 15.4 59.7 59 7.4 45.4
08:50 1015 29.97 844 24.92 15.5 59.8 62 8.2 46.8
08:55 1015 29.97 844 24.92 15.3 59.6 60 7.6 45.7
09:00 1015 29.97 844 24.92 15.4 59.7 59 7.5 45.4
09:05 1014 29.94 844 24.92 16 60.7 58 7.9 46.1
09:10 1015 29.97 844 24.92 16 60.8 57 7.5 45.4
09:15 1015 29.97 844 24.92 16.9 62.4 54 7.5 45.5
09:20 1014 29.94 844 24.92 16.9 62.3 54 7.6 45.7
09:25 1014 29.94 844 24.92 17.7 63.8 53 8.1 46.7
09:30 1014 29.94 844 24.92 17.7 63.8 52 7.9 46.2
09:35 1014 29.94 843 24.89 17.3 63.2 54 8 46.4
09:40 1014 29.94 844 24.92 17 62.6 54 7.8 46
09:45 1014 29.94 843 24.89 17.4 63.4 51 7.4 45.3
09:50 1014 29.94 843 24.89 17.8 64 51 7.7 45.8
09:55 1014 29.94 843 24.89 17.4 63.3 54 8.2 46.7
10:00 1014 29.94 843 24.89 17.6 63.7 52 7.9 46.2
10:05 1014 29.94 843 24.89 18.3 64.9 51 8.1 46.5
10:10 1014 29.94 843 24.89 17.9 64.3 53 8.5 47.2
10:15 1014 29.94 843 24.89 17.7 63.8 54 8.4 47.2
10:20 1014 29.94 843 24.89 17.9 64.2 54 8.5 47.4
10:25 1014 29.94 843 24.89 18 64.4 54 8.7 47.6
10:30 1014 29.94 843 24.89 18 64.4 54 8.7 47.7
10:35 1014 29.94 843 24.89 18.3 64.9 52 8.4 47.1
10:40 1014 29.94 843 24.89 18.6 65.6 50 8.3 46.9
10:45 1014 29.94 843 24.89 18.6 65.4 53 8.8 47.9
10:50 1014 29.94 843 24.89 19.2 66.5 50 8.6 47.5
10:55 1014 29.94 843 24.89 19.5 67 50 8.8 47.8
11:00 1014 29.94 843 24.89 19.5 67 49 8.7 47.6
11:05 1014 29.94 843 24.89 19.4 66.8 51 9 48.3
11:10 1014 29.94 843 24.89 19.4 67 50 9 48.2
11:15 1014 29.94 843 24.89 20 68 50 9.5 49.1
11:20 1014 29.94 843 24.89 20.1 68.2 50 9.6 49.2
11:25 1014 29.94 843 24.89 20.4 68.7 49 9.6 49.2
11:30 1014 29.94 843 24.89 20.6 69.2 50 10 50
11:35 1014 29.94 843 24.89 21 69.8 48 9.7 49.5
11:40 1014 29.94 843 24.89 21.2 70.1 50 10.5 50.8
11:45 1014 29.94 843 24.89 20.4 68.8 50 9.6 49.4
11:50 1014 29.94 843 24.89 20.9 69.6 47 9.4 48.9
11:55 1014 29.94 843 24.89 21.1 70 47 9.5 49.1
12:00 1014 29.94 843 24.89 20.7 69.3 49 9.6 49.4
12:05 1014 29.94 843 24.89 20.7 69.2 50 9.9 49.8
12:10 1013 29.91 843 24.89 20.7 69.3 50 10.2 50.3
12:15 1014 29.94 843 24.89 20.5 68.9 50 9.8 49.6
12:20 1013 29.91 843 24.89 20.4 68.6 52 10.4 50.8
12:25 1013 29.91 843 24.89 20.2 68.3 50 9.6 49.3
12:30 1013 29.91 843 24.89 20.8 69.4 50 10 50.1
12:35 1013 29.91 842 24.86 20.7 69.3 49 9.9 49.8
12:40 1013 29.91 842 24.86 21.9 71.3 48 10.5 50.9
12:45 1013 29.91 842 24.86 20.9 69.7 49 9.9 49.9
12:50 1013 29.91 842 24.86 20.8 69.4 51 10.4 50.8
12:55 1013 29.91 842 24.86 21.2 70.1 49 10.2 50.4
13:00 1013 29.91 842 24.86 21.3 70.3 50 10.6 51
13:05 1013 29.91 842 24.86 21 69.8 49 10 49.9
13:10 1013 29.91 842 24.86 21.8 71.3 47 10.1 50.1
13:15 1013 29.91 842 24.86 22.5 72.5 46 10.5 50.8
13:20 1013 29.91 842 24.86 21.5 70.7 51 11.2 52.1
13:25 1013 29.91 843 24.89 20.9 69.7 51 10.7 51.2
13:30 1013 29.91 842 24.86 21 69.9 52 11 51.7
13:35 1013 29.91 842 24.86 21.8 71.2 48 10.4 50.7
13:40 1013 29.91 842 24.86 22.6 72.6 40 8.3 46.9
13:45 1013 29.91 842 24.86 22.8 73 38 8 46.3
13:50 1013 29.91 842 24.86 23.7 74.7 30 5.4 41.8
13:55 1013 29.91 842 24.86 24.5 76 28 5.2 41.4
14:00 1012 29.88 842 24.86 24.5 76 29 5.3 41.5
14:05 1012 29.88 842 24.86 24.2 75.5 24 2.7 36.8
14:10 1012 29.88 841 24.83 24.4 75.9 22 1.6 34.9
14:15 1012 29.88 841 24.83 24.4 76 21 1.2 34.1
14:20 1012 29.88 841 24.83 24.2 75.6 22 1.2 34.2
14:25 1012 29.88 841 24.83 24.5 76.1 27 4.7 40.5
14:30 1012 29.88 841 24.83 24.4 76 37 8.9 48
14:35 1012 29.88 841 24.83 23.7 74.6 37 8.4 47.1
14:40 1012 29.88 841 24.83 23.8 74.9 36 7.9 46.3
14:45 1012 29.88 841 24.83 24.3 75.8 31 6.5 43.6
14:50 1012 29.88 841 24.83 25 77 29 6.1 43
14:55 1012 29.88 841 24.83 25.7 78.3 30 7.3 45.1
15:00 1012 29.88 841 24.83 26 78.9 31 7.9 46.2
15:05 1012 29.88 841 24.83 26 78.8 27 6 42.8
15:10 1012 29.88 841 24.83 26.1 79.1 28 6.6 43.9
15:15 1012 29.88 841 24.83 26 78.9 27 6 42.8
15:20 1012 29.88 841 24.83 26.3 79.3 26 5.4 41.6
15:25 1011 29.85 841 24.83 25.8 78.4 22 2.9 37.2
15:30 1011 29.85 841 24.83 25.1 77.2 23 2.9 37.2
15:35 1011 29.85 841 24.83 25.2 77.3 24 3.2 37.8
15:40 1011 29.85 841 24.83 25.2 77.3 24 3.3 38
15:45 1011 29.85 841 24.83 25.5 77.9 24 3.9 39.1
15:50 1011 29.85 840 24.81 26.1 78.9 22 3.2 37.8
15:55 1011 29.85 840 24.81 26.2 79.2 22 2.9 37.2
16:00 1011 29.85 840 24.81 26.5 79.6 20 2.1 35.7
16:05 1011 29.85 840 24.81 26.6 79.9 22 3.2 37.7
16:10 1011 29.85 840 24.81 26.3 79.3 21 2.8 37
16:15 1011 29.85 840 24.81 26.1 79.1 22 2.9 37.3
16:20 1011 29.85 840 24.81 25.5 77.9 23 2.9 37.2
16:25 1011 29.85 840 24.81 25.1 77.2 23 3.1 37.5
16:30 1011 29.85 840 24.81 25.3 77.5 22 2.6 36.6
16:35 1011 29.85 840 24.81 25.4 77.7 23 3.1 37.5
16:40 1011 29.85 840 24.81 25.7 78.2 22 2.7 36.8
16:45 1011 29.85 840 24.81 25.9 78.7 22 3 37.3
16:50 1011 29.85 840 24.81 25.9 78.6 21 2 35.6
16:55 1011 29.85 840 24.81 25.5 77.8 21 2.1 35.7
17:00 1011 29.85 840 24.81 25.5 77.9 22 2.7 36.9
17:05 1011 29.85 840 24.81 25.2 77.4 21 1.7 35.1
17:10 1011 29.85 840 24.81 25.2 77.3 23 2.6 36.8
17:15 1011 29.85 840 24.81 24.9 76.8 20 0.6 33
17:20 1011 29.85 840 24.81 24.6 76.2 23 2.4 36.3
17:25 1011 29.85 840 24.81 24.5 76.2 25 3.4 38.1
17:30 1011 29.85 840 24.81 24.9 76.8 24 3 37.4
17:35 1011 29.85 840 24.81 25.3 77.6 22 2.1 35.9
17:40 1011 29.85 840 24.81 25.6 78 21 2.1 35.8
17:45 1011 29.85 840 24.81 25.2 77.4 23 3.1 37.6
17:50 1011 29.85 840 24.81 24.9 76.9 23 2.9 37.2
17:55 1011 29.85 840 24.81 25 77 23 2.8 37.1
18:00 1011 29.85 840 24.81 24.8 76.6 23 2.8 37
18:05 1011 29.85 840 24.81 24.6 76.3 23 2.4 36.3
18:10 1011 29.85 840 24.81 24.2 75.6 25 2.9 37.2
18:15 1011 29.85 840 24.81 24.1 75.3 25 2.8 37
18:20 1011 29.85 840 24.81 24 75.3 24 2.6 36.7
18:25 1011 29.85 840 24.81 24 75.1 24 2.5 36.6
18:30 1011 29.85 840 24.81 24 75.1 24 2.5 36.5
18:35 1011 29.85 840 24.81 23.9 75.1 25 2.8 37
18:40 1011 29.85 840 24.81 23.7 74.7 25 2.6 36.7
18:45 1011 29.85 840 24.81 23.6 74.5 26 3 37.4
18:50 1011 29.85 840 24.81 23.5 74.2 23 1.3 34.4
18:55 1011 29.85 840 24.81 23.5 74.2 28 4.1 39.4
19:00 1011 29.85 840 24.81 23.3 73.9 24 1.6 34.8
19:05 1011 29.85 840 24.81 23.5 74.3 23 1.5 34.8
19:10 1011 29.85 840 24.81 23.4 74.2 24 2.2 36
19:15 1011 29.85 840 24.81 23.1 73.6 26 2.8 37
19:20 1011 29.85 840 24.81 22.9 73.2 25 1.8 35.2
19:25 1011 29.85 840 24.81 23.3 73.9 23 1.2 34.2
19:30 1011 29.85 840 24.81 23.2 73.7 24 1.8 35.3
19:35 1011 29.85 840 24.81 23.1 73.5 22 0.6 33.1
19:40 1011 29.85 840 24.81 23 73.4 25 2 35.6
19:45 1011 29.85 840 24.81 22.7 72.8 27 2.9 37.2
19:50 1011 29.85 841 24.83 22.5 72.5 24 1.1 34
19:55 1011 29.85 841 24.83 22.7 72.9 24 1.3 34.3
20:00 1011 29.85 841 24.83 22.6 72.8 26 2.6 36.7
20:05 1011 29.85 841 24.83 22.3 72.1 26 1.9 35.4
20:10 1011 29.85 841 24.83 22.2 71.9 27 2.7 36.9
20:15 1011 29.85 841 24.83 21.8 71.2 27 2.2 36
20:20 1012 29.88 841 24.83 22 71.6 27 2.3 36.2
20:25 1012 29.88 841 24.83 22.2 72 25 1.2 34.2
20:30 1011 29.85 841 24.83 22.1 71.8 25 1.4 34.6
20:35 1011 29.85 841 24.83 22 71.7 24 0.6 33.1
20:40 1011 29.85 841 24.83 21.9 71.5 24 0.9 33.6
20:45 1012 29.88 841 24.83 21.7 71 24 0.6 33.1
20:50 1012 29.88 841 24.83 21.7 71.1 22 -0.6 31
20:55 1011 29.85 841 24.83 21.9 71.4 23 -0.2 31.7
21:00 1012 29.88 841 24.83 21.8 71.2 23 -0.3 31.5
21:05 1012 29.88 841 24.83 21.8 71.2 22 -0.7 30.7
21:10 1012 29.88 841 24.83 21.6 70.8 23 -0.5 31
21:15 1012 29.88 841 24.83 21.5 70.6 23 -0.6 30.9
21:20 1012 29.88 841 24.83 21.2 70.1 26 1.1 34
21:25 1012 29.88 841 24.83 20.5 68.9 25 0.3 32.5
21:30 1012 29.88 841 24.83 20.4 68.6 26 0.7 33.2
21:35 1012 29.88 841 24.83 20.2 68.4 28 1.2 34.2
21:40 1012 29.88 841 24.83 20.4 68.6 25 -0.4 31.3
21:45 1012 29.88 841 24.83 20.1 68.2 24 -0.9 30.3
21:50 1012 29.88 841 24.83 20.1 68.1 26 0.1 32.2
21:55 1012 29.88 841 24.83 19.3 66.7 31 1.9 35.4
22:00 1012 29.88 841 24.83 18.3 65 33 1.8 35.2
22:05 1012 29.88 841 24.83 18.1 64.6 32 1.4 34.6
22:10 1012 29.88 841 24.83 17.9 64.2 33 1.5 34.8
22:15 1012 29.88 841 24.83 17.7 63.9 33 1.5 34.8
22:20 1012 29.88 842 24.86 17.5 63.5 32 0.8 33.4
22:25 1012 29.88 842 24.86 17.6 63.7 33 1.2 34.1
22:30 1012 29.88 842 24.86 17.7 63.9 32 0.8 33.4
22:35 1012 29.88 842 24.86 17.7 63.9 34 1.9 35.4
22:40 1012 29.88 842 24.86 17.4 63.3 34 1.5 34.8
22:45 1013 29.91 842 24.86 17.2 62.9 35 1.5 34.7
22:50 1013 29.91 842 24.86 17 62.5 34 1.3 34.3
22:55 1013 29.91 842 24.86 16.7 62 38 2.5 36.5
23:00 1013 29.91 842 24.86 15.9 60.7 40 2.5 36.5
23:05 1013 29.91 842 24.86 16 60.8 39 2.1 35.8
23:10 1013 29.91 842 24.86 16.1 61 38 1.8 35.2
23:15 1013 29.91 842 24.86 16.3 61.4 35 1.1 34
23:20 1013 29.91 842 24.86 16.6 61.9 35 1 33.9
23:25 1013 29.91 842 24.86 16.6 61.9 35 1.2 34.1
23:30 1013 29.91 842 24.86 16.5 61.6 39 2.7 36.8
23:35 1013 29.91 842 24.86 15.7 60.2 40 2.3 36.1
23:40 1013 29.91 842 24.86 15.6 60 41 2.3 36.1
23:45 1013 29.91 842 24.86 15.4 59.6 39 1.4 34.6
23:50 1013 29.91 842 24.86 15.9 60.7 38 1.8 35.2
23:55 1013 29.91 842 24.86 15.9 60.6 39 2 35.5
24:00 1013 29.91 842 24.86 15.8 60.5 38 1.5 34.6